sensor_id;sensor_type;location;lat;lon;timestamp;P1;durP1;ratioP1;P2;durP2;ratioP2
6755;SDS011;3415;51.148;7.014;2022-09-23T06:31:42;1.77;;;1.50;;
6755;SDS011;3415;51.148;7.014;2022-09-23T06:34:09;2.17;;;1.83;;
6755;SDS011;3415;51.148;7.014;2022-09-23T06:36:38;2.40;;;1.93;;
6755;SDS011;3415;51.148;7.014;2022-09-23T06:39:05;5.63;;;1.77;;
6755;SDS011;3415;51.148;7.014;2022-09-23T06:41:32;3.10;;;1.90;;
6755;SDS011;3415;51.148;7.014;2022-09-23T06:44:02;1.57;;;1.30;;
6755;SDS011;3415;51.148;7.014;2022-09-23T06:46:29;5.90;;;3.97;;
6755;SDS011;3415;51.148;7.014;2022-09-23T06:48:58;2.60;;;1.90;;
6755;SDS011;3415;51.148;7.014;2022-09-23T06:51:26;3.50;;;2.00;;
6755;SDS011;3415;51.148;7.014;2022-09-23T06:53:54;2.97;;;2.10;;
6755;SDS011;3415;51.148;7.014;2022-09-23T06:56:21;6.73;;;1.97;;
6755;SDS011;3415;51.148;7.014;2022-09-23T06:58:50;2.93;;;1.63;;
6755;SDS011;3415;51.148;7.014;2022-09-23T07:01:17;5.87;;;1.90;;
6755;SDS011;3415;51.148;7.014;2022-09-23T07:03:45;2.00;;;1.60;;
6755;SDS011;3415;51.148;7.014;2022-09-23T07:06:13;5.70;;;2.03;;
6755;SDS011;3415;51.148;7.014;2022-09-23T07:08:41;2.80;;;1.73;;
6755;SDS011;3415;51.148;7.014;2022-09-23T07:11:10;2.40;;;1.90;;
6755;SDS011;3415;51.148;7.014;2022-09-23T07:13:38;1.60;;;1.50;;
6755;SDS011;3415;51.148;7.014;2022-09-23T07:16:06;4.40;;;1.77;;
6755;SDS011;3415;51.148;7.014;2022-09-23T07:18:35;2.13;;;1.40;;
6755;SDS011;3415;51.148;7.014;2022-09-23T07:21:05;2.03;;;1.50;;
6755;SDS011;3415;51.148;7.014;2022-09-23T07:23:34;2.40;;;1.80;;
6755;SDS011;3415;51.148;7.014;2022-09-23T07:26:02;2.10;;;1.70;;
6755;SDS011;3415;51.148;7.014;2022-09-23T07:28:32;3.47;;;1.50;;
6755;SDS011;3415;51.148;7.014;2022-09-23T07:31:01;3.20;;;1.73;;
6755;SDS011;3415;51.148;7.014;2022-09-23T07:33:30;2.77;;;1.77;;
6755;SDS011;3415;51.148;7.014;2022-09-23T07:35:58;2.60;;;1.97;;
6755;SDS011;3415;51.148;7.014;2022-09-23T07:38:29;3.83;;;1.93;;
6755;SDS011;3415;51.148;7.014;2022-09-23T07:41:00;2.63;;;2.17;;
6755;SDS011;3415;51.148;7.014;2022-09-23T07:43:28;3.03;;;1.73;;
6755;SDS011;3415;51.148;7.014;2022-09-23T07:45:56;1.97;;;1.70;;
6755;SDS011;3415;51.148;7.014;2022-09-23T07:48:24;1.73;;;1.50;;
6755;SDS011;3415;51.148;7.014;2022-09-23T07:50:51;3.33;;;1.70;;
6755;SDS011;3415;51.148;7.014;2022-09-23T07:53:18;4.00;;;1.70;;
6755;SDS011;3415;51.148;7.014;2022-09-23T07:55:50;3.23;;;1.87;;
6755;SDS011;3415;51.148;7.014;2022-09-23T07:58:19;2.40;;;1.70;;
6755;SDS011;3415;51.148;7.014;2022-09-23T08:00:46;2.53;;;1.77;;
6755;SDS011;3415;51.148;7.014;2022-09-23T08:03:15;4.83;;;1.40;;
6755;SDS011;3415;51.148;7.014;2022-09-23T08:05:42;2.40;;;1.80;;
6755;SDS011;3415;51.148;7.014;2022-09-23T08:08:10;3.83;;;1.90;;
6755;SDS011;3415;51.148;7.014;2022-09-23T08:10:38;2.57;;;1.80;;
6755;SDS011;3415;51.148;7.014;2022-09-23T08:13:05;3.17;;;1.70;;
6755;SDS011;3415;51.148;7.014;2022-09-23T08:15:33;9.10;;;1.93;;
6755;SDS011;3415;51.148;7.014;2022-09-23T08:18:00;1.80;;;1.27;;
6755;SDS011;3415;51.148;7.014;2022-09-23T08:20:27;3.10;;;1.77;;
6755;SDS011;3415;51.148;7.014;2022-09-23T08:23:12;3.53;;;2.07;;
6755;SDS011;3415;51.148;7.014;2022-09-23T08:25:40;2.77;;;1.70;;
6755;SDS011;3415;51.148;7.014;2022-09-23T08:28:09;2.43;;;1.50;;
6755;SDS011;3415;51.148;7.014;2022-09-23T08:30:38;2.83;;;1.90;;
6755;SDS011;3415;51.148;7.014;2022-09-23T08:33:05;2.43;;;1.60;;
6755;SDS011;3415;51.148;7.014;2022-09-23T08:35:32;2.13;;;1.73;;
6755;SDS011;3415;51.148;7.014;2022-09-23T08:37:59;3.20;;;1.80;;
6755;SDS011;3415;51.148;7.014;2022-09-23T08:40:26;3.27;;;1.53;;
6755;SDS011;3415;51.148;7.014;2022-09-23T08:42:52;2.90;;;1.50;;
6755;SDS011;3415;51.148;7.014;2022-09-23T08:45:20;3.97;;;2.00;;
6755;SDS011;3415;51.148;7.014;2022-09-23T08:47:52;3.90;;;2.37;;
6755;SDS011;3415;51.148;7.014;2022-09-23T08:50:22;5.10;;;1.90;;
6755;SDS011;3415;51.148;7.014;2022-09-23T08:52:52;2.10;;;1.90;;
6755;SDS011;3415;51.148;7.014;2022-09-23T08:55:21;2.87;;;1.90;;
6755;SDS011;3415;51.148;7.014;2022-09-23T08:58:01;5.20;;;1.83;;
6755;SDS011;3415;51.148;7.014;2022-09-23T09:00:35;17.03;;;2.23;;
6755;SDS011;3415;51.148;7.014;2022-09-23T09:03:12;2.20;;;1.70;;
6755;SDS011;3415;51.148;7.014;2022-09-23T09:05:47;2.90;;;1.70;;
6755;SDS011;3415;51.148;7.014;2022-09-23T09:08:16;2.40;;;1.90;;
6755;SDS011;3415;51.148;7.014;2022-09-23T09:10:50;3.30;;;1.70;;
6755;SDS011;3415;51.148;7.014;2022-09-23T09:13:22;5.03;;;1.70;;
6755;SDS011;3415;51.148;7.014;2022-09-23T09:15:58;2.23;;;1.70;;
6755;SDS011;3415;51.148;7.014;2022-09-23T09:18:41;3.63;;;1.97;;
6755;SDS011;3415;51.148;7.014;2022-09-23T09:21:15;4.60;;;2.17;;
6755;SDS011;3415;51.148;7.014;2022-09-23T09:23:44;1.90;;;1.70;;
6755;SDS011;3415;51.148;7.014;2022-09-23T09:26:18;2.10;;;1.40;;
6755;SDS011;3415;51.148;7.014;2022-09-23T09:28:47;2.83;;;1.70;;
6755;SDS011;3415;51.148;7.014;2022-09-23T09:31:19;2.47;;;1.80;;
6755;SDS011;3415;51.148;7.014;2022-09-23T09:33:53;2.43;;;1.50;;
6755;SDS011;3415;51.148;7.014;2022-09-23T09:36:27;2.60;;;1.90;;
6755;SDS011;3415;51.148;7.014;2022-09-23T09:39:01;2.90;;;1.60;;
6755;SDS011;3415;51.148;7.014;2022-09-23T09:41:28;3.00;;;1.97;;
6755;SDS011;3415;51.148;7.014;2022-09-23T09:43:56;2.27;;;1.70;;
6755;SDS011;3415;51.148;7.014;2022-09-23T09:49:21;3.50;;;1.60;;
6755;SDS011;3415;51.148;7.014;2022-09-23T09:52:12;3.80;;;2.03;;
6755;SDS011;3415;51.148;7.014;2022-09-23T09:54:45;2.40;;;1.47;;
6755;SDS011;3415;51.148;7.014;2022-09-23T09:57:16;3.47;;;1.60;;
6755;SDS011;3415;51.148;7.014;2022-09-23T09:59:50;2.30;;;2.00;;
6755;SDS011;3415;51.148;7.014;2022-09-23T10:02:21;2.23;;;1.60;;
6755;SDS011;3415;51.148;7.014;2022-09-23T10:04:56;3.37;;;1.77;;
6755;SDS011;3415;51.148;7.014;2022-09-23T10:07:26;2.13;;;1.80;;
6755;SDS011;3415;51.148;7.014;2022-09-23T10:09:55;3.27;;;2.40;;
6755;SDS011;3415;51.148;7.014;2022-09-23T10:12:25;5.80;;;2.90;;
6755;SDS011;3415;51.148;7.014;2022-09-23T10:14:54;2.47;;;1.80;;
6755;SDS011;3415;51.148;7.014;2022-09-23T10:17:23;3.07;;;1.80;;
6755;SDS011;3415;51.148;7.014;2022-09-23T10:19:57;3.10;;;1.37;;
6755;SDS011;3415;51.148;7.014;2022-09-23T10:22:26;2.17;;;1.77;;
6755;SDS011;3415;51.148;7.014;2022-09-23T10:24:58;5.33;;;1.90;;
6755;SDS011;3415;51.148;7.014;2022-09-23T10:27:31;4.17;;;1.97;;
6755;SDS011;3415;51.148;7.014;2022-09-23T10:29:59;2.63;;;1.90;;
6755;SDS011;3415;51.148;7.014;2022-09-23T10:32:29;2.17;;;1.53;;
6755;SDS011;3415;51.148;7.014;2022-09-23T10:35:01;3.33;;;2.07;;
6755;SDS011;3415;51.148;7.014;2022-09-23T10:37:38;2.97;;;2.10;;
6755;SDS011;3415;51.148;7.014;2022-09-23T10:40:11;2.03;;;1.60;;
6755;SDS011;3415;51.148;7.014;2022-09-23T10:46:36;3.97;;;2.10;;
6755;SDS011;3415;51.148;7.014;2022-09-23T10:49:18;2.20;;;1.63;;
6755;SDS011;3415;51.148;7.014;2022-09-23T10:54:59;4.60;;;2.07;;
6755;SDS011;3415;51.148;7.014;2022-09-23T10:57:37;2.43;;;1.70;;
6755;SDS011;3415;51.148;7.014;2022-09-23T11:00:14;4.33;;;1.90;;
6755;SDS011;3415;51.148;7.014;2022-09-23T11:05:49;6.80;;;2.00;;
6755;SDS011;3415;51.148;7.014;2022-09-23T11:08:33;4.60;;;1.97;;
6755;SDS011;3415;51.148;7.014;2022-09-23T11:11:16;3.87;;;1.93;;
6755;SDS011;3415;51.148;7.014;2022-09-23T11:14:00;2.67;;;1.73;;
6755;SDS011;3415;51.148;7.014;2022-09-23T11:16:43;3.10;;;1.93;;
6755;SDS011;3415;51.148;7.014;2022-09-23T11:19:25;2.30;;;1.70;;
6755;SDS011;3415;51.148;7.014;2022-09-23T11:22:17;4.60;;;2.03;;
6755;SDS011;3415;51.148;7.014;2022-09-23T11:28:10;3.10;;;2.20;;
6755;SDS011;3415;51.148;7.014;2022-09-23T11:31:06;2.97;;;2.10;;
6755;SDS011;3415;51.148;7.014;2022-09-23T11:33:43;2.23;;;1.57;;
6755;SDS011;3415;51.148;7.014;2022-09-23T11:36:21;3.77;;;1.80;;
6755;SDS011;3415;51.148;7.014;2022-09-23T11:38:52;3.50;;;1.40;;
6755;SDS011;3415;51.148;7.014;2022-09-23T11:41:24;3.37;;;2.00;;
6755;SDS011;3415;51.148;7.014;2022-09-23T11:43:54;3.30;;;1.77;;
6755;SDS011;3415;51.148;7.014;2022-09-23T11:46:29;3.47;;;1.37;;
6755;SDS011;3415;51.148;7.014;2022-09-23T11:49:02;3.70;;;1.60;;
6755;SDS011;3415;51.148;7.014;2022-09-23T11:51:37;3.30;;;1.70;;
6755;SDS011;3415;51.148;7.014;2022-09-23T11:54:09;2.60;;;1.53;;
6755;SDS011;3415;51.148;7.014;2022-09-23T11:56:43;2.50;;;1.60;;
6755;SDS011;3415;51.148;7.014;2022-09-23T11:59:14;2.60;;;1.40;;
6755;SDS011;3415;51.148;7.014;2022-09-23T12:01:50;5.00;;;2.60;;
6755;SDS011;3415;51.148;7.014;2022-09-23T12:04:22;1.73;;;1.40;;
6755;SDS011;3415;51.148;7.014;2022-09-23T12:06:56;3.27;;;1.53;;
6755;SDS011;3415;51.148;7.014;2022-09-23T12:09:26;2.43;;;1.50;;
6755;SDS011;3415;51.148;7.014;2022-09-23T12:12:02;5.43;;;1.90;;
6755;SDS011;3415;51.148;7.014;2022-09-23T12:14:51;4.80;;;1.87;;
6755;SDS011;3415;51.148;7.014;2022-09-23T12:17:32;4.23;;;1.73;;
6755;SDS011;3415;51.148;7.014;2022-09-23T12:20:39;3.00;;;1.53;;
6755;SDS011;3415;51.148;7.014;2022-09-23T12:23:22;3.27;;;2.03;;
6755;SDS011;3415;51.148;7.014;2022-09-23T12:25:59;3.57;;;1.60;;
6755;SDS011;3415;51.148;7.014;2022-09-23T12:28:31;2.90;;;1.43;;
6755;SDS011;3415;51.148;7.014;2022-09-23T12:31:01;2.90;;;1.80;;
6755;SDS011;3415;51.148;7.014;2022-09-23T12:33:33;3.47;;;1.70;;
6755;SDS011;3415;51.148;7.014;2022-09-23T12:36:02;3.40;;;1.70;;
6755;SDS011;3415;51.148;7.014;2022-09-23T12:38:31;2.93;;;1.47;;
6755;SDS011;3415;51.148;7.014;2022-09-23T12:41:00;2.27;;;1.60;;
6755;SDS011;3415;51.148;7.014;2022-09-23T12:43:50;1.40;;;1.30;;
6755;SDS011;3415;51.148;7.014;2022-09-23T12:46:21;2.67;;;1.60;;
6755;SDS011;3415;51.148;7.014;2022-09-23T12:49:00;3.30;;;1.80;;
6755;SDS011;3415;51.148;7.014;2022-09-23T12:51:29;4.43;;;2.00;;
6755;SDS011;3415;51.148;7.014;2022-09-23T12:56:56;4.00;;;1.70;;
6755;SDS011;3415;51.148;7.014;2022-09-23T12:59:29;2.43;;;1.60;;
6755;SDS011;3415;51.148;7.014;2022-09-23T13:02:09;2.30;;;1.70;;
6755;SDS011;3415;51.148;7.014;2022-09-23T13:04:55;6.60;;;1.80;;
6755;SDS011;3415;51.148;7.014;2022-09-23T13:07:46;7.30;;;2.97;;
6755;SDS011;3415;51.148;7.014;2022-09-23T13:10:16;2.40;;;1.73;;
6755;SDS011;3415;51.148;7.014;2022-09-23T13:12:48;3.03;;;1.80;;
6755;SDS011;3415;51.148;7.014;2022-09-23T13:15:21;2.47;;;1.70;;
6755;SDS011;3415;51.148;7.014;2022-09-23T13:20:51;2.90;;;1.80;;
6755;SDS011;3415;51.148;7.014;2022-09-23T13:23:22;4.30;;;1.63;;
6755;SDS011;3415;51.148;7.014;2022-09-23T13:25:50;5.27;;;1.67;;
6755;SDS011;3415;51.148;7.014;2022-09-23T13:28:24;2.83;;;1.50;;
6755;SDS011;3415;51.148;7.014;2022-09-23T13:30:58;2.70;;;1.60;;
6755;SDS011;3415;51.148;7.014;2022-09-23T13:33:30;5.20;;;1.70;;
6755;SDS011;3415;51.148;7.014;2022-09-23T13:36:07;2.53;;;1.90;;
6755;SDS011;3415;51.148;7.014;2022-09-23T13:38:37;3.07;;;1.60;;
6755;SDS011;3415;51.148;7.014;2022-09-23T13:41:05;3.30;;;1.97;;
6755;SDS011;3415;51.148;7.014;2022-09-23T13:43:36;2.33;;;1.40;;
6755;SDS011;3415;51.148;7.014;2022-09-23T13:46:08;3.97;;;1.80;;
6755;SDS011;3415;51.148;7.014;2022-09-23T13:48:37;3.70;;;1.47;;
6755;SDS011;3415;51.148;7.014;2022-09-23T13:51:06;2.97;;;1.70;;
6755;SDS011;3415;51.148;7.014;2022-09-23T13:53:35;2.23;;;1.70;;
6755;SDS011;3415;51.148;7.014;2022-09-23T13:56:03;3.07;;;1.40;;
6755;SDS011;3415;51.148;7.014;2022-09-23T13:58:32;1.93;;;1.73;;
6755;SDS011;3415;51.148;7.014;2022-09-23T14:01:00;3.20;;;1.70;;
6755;SDS011;3415;51.148;7.014;2022-09-23T14:03:29;6.30;;;2.00;;
6755;SDS011;3415;51.148;7.014;2022-09-23T14:05:58;2.20;;;1.50;;
6755;SDS011;3415;51.148;7.014;2022-09-23T14:08:26;6.00;;;1.60;;
6755;SDS011;3415;51.148;7.014;2022-09-23T14:10:54;2.07;;;1.70;;
6755;SDS011;3415;51.148;7.014;2022-09-23T14:13:23;1.83;;;1.50;;
6755;SDS011;3415;51.148;7.014;2022-09-23T14:15:52;3.07;;;1.70;;
6755;SDS011;3415;51.148;7.014;2022-09-23T14:18:34;4.30;;;1.90;;
6755;SDS011;3415;51.148;7.014;2022-09-23T14:21:03;5.30;;;1.97;;
6755;SDS011;3415;51.148;7.014;2022-09-23T14:23:31;2.93;;;1.70;;
6755;SDS011;3415;51.148;7.014;2022-09-23T14:25:58;2.03;;;1.53;;
6755;SDS011;3415;51.148;7.014;2022-09-23T14:28:26;8.97;;;1.97;;
6755;SDS011;3415;51.148;7.014;2022-09-23T14:30:54;5.07;;;1.70;;
6755;SDS011;3415;51.148;7.014;2022-09-23T14:33:23;3.70;;;1.53;;
6755;SDS011;3415;51.148;7.014;2022-09-23T14:35:53;4.33;;;1.57;;
6755;SDS011;3415;51.148;7.014;2022-09-23T14:38:26;1.90;;;1.53;;
6755;SDS011;3415;51.148;7.014;2022-09-23T14:41:15;2.97;;;1.70;;
6755;SDS011;3415;51.148;7.014;2022-09-23T14:43:48;2.87;;;1.50;;
6755;SDS011;3415;51.148;7.014;2022-09-23T14:46:18;2.30;;;1.20;;
6755;SDS011;3415;51.148;7.014;2022-09-23T14:48:54;3.60;;;1.60;;
6755;SDS011;3415;51.148;7.014;2022-09-23T14:51:33;2.73;;;1.80;;
6755;SDS011;3415;51.148;7.014;2022-09-23T14:54:28;3.20;;;2.00;;
6755;SDS011;3415;51.148;7.014;2022-09-23T14:57:18;2.27;;;1.60;;
6755;SDS011;3415;51.148;7.014;2022-09-23T14:59:51;3.00;;;2.03;;
6755;SDS011;3415;51.148;7.014;2022-09-23T15:02:26;2.00;;;1.67;;
6755;SDS011;3415;51.148;7.014;2022-09-23T15:05:05;2.33;;;1.60;;
6755;SDS011;3415;51.148;7.014;2022-09-23T15:07:45;2.90;;;1.60;;
6755;SDS011;3415;51.148;7.014;2022-09-23T15:10:16;2.77;;;1.80;;
6755;SDS011;3415;51.148;7.014;2022-09-23T15:12:47;2.47;;;1.50;;
6755;SDS011;3415;51.148;7.014;2022-09-23T15:15:15;2.13;;;1.40;;
6755;SDS011;3415;51.148;7.014;2022-09-23T15:17:43;2.13;;;1.47;;
6755;SDS011;3415;51.148;7.014;2022-09-23T15:20:16;2.30;;;1.50;;
6755;SDS011;3415;51.148;7.014;2022-09-23T15:22:48;1.73;;;1.33;;
6755;SDS011;3415;51.148;7.014;2022-09-23T15:25:17;4.20;;;2.10;;
6755;SDS011;3415;51.148;7.014;2022-09-23T15:27:57;2.13;;;1.43;;
6755;SDS011;3415;51.148;7.014;2022-09-23T15:30:26;6.93;;;1.37;;
6755;SDS011;3415;51.148;7.014;2022-09-23T15:32:54;1.73;;;1.17;;
6755;SDS011;3415;51.148;7.014;2022-09-23T15:35:22;1.97;;;1.50;;
6755;SDS011;3415;51.148;7.014;2022-09-23T15:37:53;2.90;;;1.17;;
6755;SDS011;3415;51.148;7.014;2022-09-23T15:40:23;1.93;;;1.40;;
6755;SDS011;3415;51.148;7.014;2022-09-23T15:42:53;3.07;;;1.40;;
6755;SDS011;3415;51.148;7.014;2022-09-23T15:45:25;2.40;;;1.50;;
6755;SDS011;3415;51.148;7.014;2022-09-23T15:47:55;2.10;;;1.17;;
6755;SDS011;3415;51.148;7.014;2022-09-23T15:50:26;3.90;;;1.33;;
6755;SDS011;3415;51.148;7.014;2022-09-23T15:52:55;1.93;;;1.40;;
6755;SDS011;3415;51.148;7.014;2022-09-23T15:55:23;1.60;;;1.17;;
6755;SDS011;3415;51.148;7.014;2022-09-23T15:57:50;2.33;;;1.30;;
6755;SDS011;3415;51.148;7.014;2022-09-23T16:00:17;1.63;;;1.30;;
6755;SDS011;3415;51.148;7.014;2022-09-23T16:02:45;1.40;;;1.20;;
6755;SDS011;3415;51.148;7.014;2022-09-23T16:05:15;1.50;;;1.27;;
6755;SDS011;3415;51.148;7.014;2022-09-23T16:07:46;2.13;;;1.20;;
6755;SDS011;3415;51.148;7.014;2022-09-23T16:10:17;5.93;;;1.60;;
6755;SDS011;3415;51.148;7.014;2022-09-23T16:12:45;3.27;;;1.23;;
6755;SDS011;3415;51.148;7.014;2022-09-23T16:15:14;6.10;;;1.27;;
6755;SDS011;3415;51.148;7.014;2022-09-23T16:17:43;2.60;;;1.50;;
6755;SDS011;3415;51.148;7.014;2022-09-23T16:20:10;1.80;;;1.60;;
6755;SDS011;3415;51.148;7.014;2022-09-23T16:22:39;1.67;;;1.30;;
6755;SDS011;3415;51.148;7.014;2022-09-23T16:25:08;2.07;;;1.50;;
6755;SDS011;3415;51.148;7.014;2022-09-23T16:27:38;8.50;;;1.60;;
6755;SDS011;3415;51.148;7.014;2022-09-23T16:30:06;3.10;;;1.37;;
6755;SDS011;3415;51.148;7.014;2022-09-23T16:32:34;3.57;;;1.50;;
6755;SDS011;3415;51.148;7.014;2022-09-23T16:35:01;3.83;;;1.47;;
6755;SDS011;3415;51.148;7.014;2022-09-23T16:37:28;3.90;;;1.70;;
6755;SDS011;3415;51.148;7.014;2022-09-23T16:39:54;12.00;;;1.83;;
6755;SDS011;3415;51.148;7.014;2022-09-23T16:42:21;2.60;;;1.70;;
6755;SDS011;3415;51.148;7.014;2022-09-23T16:44:49;1.80;;;1.57;;
6755;SDS011;3415;51.148;7.014;2022-09-23T16:47:16;1.83;;;1.43;;
6755;SDS011;3415;51.148;7.014;2022-09-23T16:49:44;3.70;;;2.20;;
6755;SDS011;3415;51.148;7.014;2022-09-23T16:52:11;2.90;;;1.63;;
6755;SDS011;3415;51.148;7.014;2022-09-23T16:54:39;5.17;;;2.13;;
6755;SDS011;3415;51.148;7.014;2022-09-23T16:57:07;3.20;;;1.80;;
6755;SDS011;3415;51.148;7.014;2022-09-23T16:59:35;2.37;;;1.70;;
6755;SDS011;3415;51.148;7.014;2022-09-23T17:02:18;5.27;;;2.20;;
6755;SDS011;3415;51.148;7.014;2022-09-23T17:05:02;2.60;;;1.77;;
6755;SDS011;3415;51.148;7.014;2022-09-23T17:07:30;6.07;;;2.63;;
6755;SDS011;3415;51.148;7.014;2022-09-23T17:09:57;5.30;;;2.80;;
6755;SDS011;3415;51.148;7.014;2022-09-23T17:12:24;5.70;;;2.60;;
6755;SDS011;3415;51.148;7.014;2022-09-23T17:14:54;6.50;;;3.03;;
6755;SDS011;3415;51.148;7.014;2022-09-23T17:17:22;5.93;;;3.50;;
6755;SDS011;3415;51.148;7.014;2022-09-23T17:19:49;2.90;;;2.40;;
6755;SDS011;3415;51.148;7.014;2022-09-23T17:22:16;5.00;;;2.20;;
6755;SDS011;3415;51.148;7.014;2022-09-23T17:24:43;6.37;;;2.60;;
6755;SDS011;3415;51.148;7.014;2022-09-23T17:27:10;3.50;;;2.43;;
6755;SDS011;3415;51.148;7.014;2022-09-23T17:29:37;3.67;;;2.23;;
6755;SDS011;3415;51.148;7.014;2022-09-23T17:32:04;5.17;;;1.73;;
6755;SDS011;3415;51.148;7.014;2022-09-23T17:34:34;3.20;;;1.93;;
6755;SDS011;3415;51.148;7.014;2022-09-23T17:37:01;4.27;;;2.37;;
6755;SDS011;3415;51.148;7.014;2022-09-23T17:39:28;2.57;;;1.90;;
6755;SDS011;3415;51.148;7.014;2022-09-23T17:41:55;2.73;;;1.90;;
6755;SDS011;3415;51.148;7.014;2022-09-23T17:44:22;2.53;;;1.60;;
6755;SDS011;3415;51.148;7.014;2022-09-23T17:46:49;3.17;;;2.17;;
6755;SDS011;3415;51.148;7.014;2022-09-23T17:49:16;3.40;;;2.10;;
6755;SDS011;3415;51.148;7.014;2022-09-23T17:51:44;3.90;;;1.80;;
6755;SDS011;3415;51.148;7.014;2022-09-23T17:54:11;2.03;;;1.80;;
6755;SDS011;3415;51.148;7.014;2022-09-23T17:56:39;6.80;;;2.33;;
6755;SDS011;3415;51.148;7.014;2022-09-23T17:59:08;4.63;;;2.13;;
6755;SDS011;3415;51.148;7.014;2022-09-23T18:01:36;3.40;;;2.37;;
6755;SDS011;3415;51.148;7.014;2022-09-23T18:04:03;4.37;;;2.17;;
6755;SDS011;3415;51.148;7.014;2022-09-23T18:06:30;3.30;;;2.30;;
6755;SDS011;3415;51.148;7.014;2022-09-23T18:09:01;4.83;;;3.07;;
6755;SDS011;3415;51.148;7.014;2022-09-23T18:11:30;10.43;;;3.53;;
6755;SDS011;3415;51.148;7.014;2022-09-23T18:13:59;6.57;;;2.90;;
6755;SDS011;3415;51.148;7.014;2022-09-23T18:16:27;4.00;;;2.70;;
6755;SDS011;3415;51.148;7.014;2022-09-23T18:18:56;5.90;;;2.90;;
6755;SDS011;3415;51.148;7.014;2022-09-23T18:21:25;6.33;;;2.80;;
6755;SDS011;3415;51.148;7.014;2022-09-23T18:23:53;4.30;;;2.90;;
6755;SDS011;3415;51.148;7.014;2022-09-23T18:26:22;6.30;;;2.53;;
6755;SDS011;3415;51.148;7.014;2022-09-23T18:28:50;7.43;;;2.70;;
6755;SDS011;3415;51.148;7.014;2022-09-23T18:31:21;5.43;;;2.67;;
6755;SDS011;3415;51.148;7.014;2022-09-23T18:33:48;5.80;;;2.70;;
6755;SDS011;3415;51.148;7.014;2022-09-23T18:36:16;6.13;;;3.20;;
6755;SDS011;3415;51.148;7.014;2022-09-23T18:38:43;6.70;;;3.13;;
6755;SDS011;3415;51.148;7.014;2022-09-23T18:41:10;5.37;;;3.30;;
6755;SDS011;3415;51.148;7.014;2022-09-23T18:43:39;5.30;;;3.20;;
6755;SDS011;3415;51.148;7.014;2022-09-23T18:46:06;6.43;;;2.73;;
6755;SDS011;3415;51.148;7.014;2022-09-23T18:48:35;7.80;;;2.90;;
6755;SDS011;3415;51.148;7.014;2022-09-23T18:51:20;3.40;;;2.43;;
6755;SDS011;3415;51.148;7.014;2022-09-23T18:53:50;4.57;;;2.70;;
6755;SDS011;3415;51.148;7.014;2022-09-23T18:56:22;3.37;;;2.40;;
6755;SDS011;3415;51.148;7.014;2022-09-23T18:58:52;3.80;;;2.93;;
6755;SDS011;3415;51.148;7.014;2022-09-23T19:01:20;7.33;;;2.80;;
6755;SDS011;3415;51.148;7.014;2022-09-23T19:03:52;4.53;;;2.80;;
6755;SDS011;3415;51.148;7.014;2022-09-23T19:06:20;5.70;;;2.13;;
6755;SDS011;3415;51.148;7.014;2022-09-23T19:08:48;4.10;;;2.70;;
6755;SDS011;3415;51.148;7.014;2022-09-23T19:11:15;3.87;;;2.40;;
6755;SDS011;3415;51.148;7.014;2022-09-23T19:13:42;4.33;;;2.67;;
6755;SDS011;3415;51.148;7.014;2022-09-23T19:16:11;4.80;;;2.70;;
6755;SDS011;3415;51.148;7.014;2022-09-23T19:18:40;5.03;;;2.87;;
6755;SDS011;3415;51.148;7.014;2022-09-23T19:21:10;3.50;;;2.73;;
6755;SDS011;3415;51.148;7.014;2022-09-23T19:23:38;6.10;;;3.20;;
6755;SDS011;3415;51.148;7.014;2022-09-23T19:26:11;6.07;;;3.70;;
6755;SDS011;3415;51.148;7.014;2022-09-23T19:28:39;12.57;;;3.53;;
6755;SDS011;3415;51.148;7.014;2022-09-23T19:31:11;4.60;;;3.10;;
6755;SDS011;3415;51.148;7.014;2022-09-23T19:33:40;3.93;;;3.03;;
6755;SDS011;3415;51.148;7.014;2022-09-23T19:36:08;5.33;;;3.00;;
6755;SDS011;3415;51.148;7.014;2022-09-23T19:38:36;4.50;;;2.40;;
6755;SDS011;3415;51.148;7.014;2022-09-23T19:41:03;6.13;;;3.10;;
6755;SDS011;3415;51.148;7.014;2022-09-23T19:43:32;3.90;;;2.60;;
6755;SDS011;3415;51.148;7.014;2022-09-23T19:46:00;4.20;;;2.63;;
6755;SDS011;3415;51.148;7.014;2022-09-23T19:48:28;6.70;;;3.27;;
6755;SDS011;3415;51.148;7.014;2022-09-23T19:50:55;7.03;;;3.20;;
6755;SDS011;3415;51.148;7.014;2022-09-23T19:53:22;7.20;;;3.63;;
6755;SDS011;3415;51.148;7.014;2022-09-23T19:55:49;5.43;;;3.23;;
6755;SDS011;3415;51.148;7.014;2022-09-23T19:58:17;4.37;;;3.30;;
6755;SDS011;3415;51.148;7.014;2022-09-23T20:00:44;7.00;;;3.27;;
6755;SDS011;3415;51.148;7.014;2022-09-23T20:03:11;12.20;;;3.13;;
6755;SDS011;3415;51.148;7.014;2022-09-23T20:05:39;7.70;;;3.60;;
6755;SDS011;3415;51.148;7.014;2022-09-23T20:08:06;6.80;;;3.17;;
6755;SDS011;3415;51.148;7.014;2022-09-23T20:10:33;7.40;;;4.27;;
6755;SDS011;3415;51.148;7.014;2022-09-23T20:13:02;11.13;;;3.50;;
6755;SDS011;3415;51.148;7.014;2022-09-23T20:15:29;7.00;;;3.70;;
6755;SDS011;3415;51.148;7.014;2022-09-23T20:17:56;11.90;;;4.00;;
6755;SDS011;3415;51.148;7.014;2022-09-23T20:20:23;6.90;;;3.33;;
6755;SDS011;3415;51.148;7.014;2022-09-23T20:22:51;8.43;;;3.27;;
6755;SDS011;3415;51.148;7.014;2022-09-23T20:25:19;5.10;;;3.37;;
6755;SDS011;3415;51.148;7.014;2022-09-23T20:27:47;8.60;;;3.80;;
6755;SDS011;3415;51.148;7.014;2022-09-23T20:30:16;6.83;;;3.53;;
6755;SDS011;3415;51.148;7.014;2022-09-23T20:32:43;7.70;;;3.70;;
6755;SDS011;3415;51.148;7.014;2022-09-23T20:35:11;6.03;;;3.40;;
6755;SDS011;3415;51.148;7.014;2022-09-23T20:37:37;9.20;;;3.40;;
6755;SDS011;3415;51.148;7.014;2022-09-23T20:40:06;4.83;;;3.50;;
6755;SDS011;3415;51.148;7.014;2022-09-23T20:42:34;7.03;;;3.63;;
6755;SDS011;3415;51.148;7.014;2022-09-23T20:45:00;10.37;;;3.70;;
6755;SDS011;3415;51.148;7.014;2022-09-23T20:47:27;6.67;;;3.83;;
6755;SDS011;3415;51.148;7.014;2022-09-23T20:49:54;5.23;;;3.50;;
6755;SDS011;3415;51.148;7.014;2022-09-23T20:52:21;7.80;;;3.50;;
6755;SDS011;3415;51.148;7.014;2022-09-23T20:54:48;5.87;;;3.67;;
6755;SDS011;3415;51.148;7.014;2022-09-23T20:57:17;8.20;;;4.03;;
6755;SDS011;3415;51.148;7.014;2022-09-23T20:59:45;11.43;;;4.30;;
6755;SDS011;3415;51.148;7.014;2022-09-23T21:02:12;7.97;;;4.33;;
6755;SDS011;3415;51.148;7.014;2022-09-23T21:04:40;6.47;;;3.80;;
6755;SDS011;3415;51.148;7.014;2022-09-23T21:07:06;5.43;;;3.90;;
